createdAt,value
2022-09-06T00:02:33.873Z,76.64
2022-09-06T00:07:36.643Z,76.35
2022-09-06T00:12:39.265Z,76.39
2022-09-06T00:18:06.071Z,76.69
2022-09-06T00:23:10.055Z,76.17
2022-09-06T00:28:31.080Z,76.40
2022-09-06T00:33:33.384Z,76.47
2022-09-06T00:38:36.365Z,76.41
2022-09-06T00:43:57.258Z,76.30
2022-09-06T00:49:25.882Z,76.71
2022-09-06T00:54:29.621Z,76.47
2022-09-06T00:59:34.473Z,76.86
2022-09-06T01:04:56.058Z,76.70
2022-09-06T01:10:31.210Z,77.42
2022-09-06T01:16:21.309Z,77.44
2022-09-06T01:21:50.500Z,77.56
2022-09-06T01:26:52.795Z,76.77
2022-09-06T01:32:49.126Z,77.63
2022-09-06T01:37:51.552Z,76.75
2022-09-06T01:42:54.324Z,76.84
2022-09-06T01:48:25.325Z,77.38
2022-09-06T01:53:41.622Z,76.98
2022-09-06T01:59:23.632Z,77.52
2022-09-06T02:04:30.567Z,77.09
2022-09-06T02:09:37.808Z,76.89
2022-09-06T02:15:03.739Z,76.84
2022-09-06T02:20:29.436Z,76.64
2022-09-06T02:25:38.942Z,77.01
2022-09-06T02:30:43.323Z,76.76
2022-09-06T02:36:06.944Z,76.39
2022-09-06T02:41:09.628Z,76.47
2022-09-06T02:46:12.883Z,76.33
2022-09-06T02:51:15.261Z,76.34
2022-09-06T02:56:17.556Z,76.38
2022-09-06T03:01:38.777Z,76.31
2022-09-06T03:06:59.745Z,76.19
2022-09-06T03:12:02.123Z,76.31
2022-09-06T03:17:04.856Z,76.35
2022-09-06T03:22:25.967Z,76.22
2022-09-06T03:27:28.351Z,76.14
2022-09-06T03:32:49.137Z,76.06
2022-09-06T03:37:51.384Z,76.18
2022-09-06T03:42:53.635Z,76.03
2022-09-06T03:48:15.349Z,76.08
2022-09-06T03:53:39.652Z,76.01
2022-09-06T03:58:41.987Z,76.23
2022-09-06T04:04:05.764Z,76.13
2022-09-06T04:09:08.196Z,76.40
2022-09-06T04:14:10.797Z,76.31
2022-09-06T04:19:31.296Z,76.31
2022-09-06T04:24:33.671Z,76.46
2022-09-06T04:29:54.349Z,76.18
2022-09-06T04:35:15.294Z,76.18
2022-09-06T04:40:17.711Z,75.97
2022-09-06T04:45:20.047Z,75.83
2022-09-06T04:50:22.348Z,75.45
2022-09-06T04:55:43.104Z,75.56
2022-09-06T05:01:04.185Z,75.25
2022-09-06T05:06:18.422Z,74.60
2022-09-06T05:11:20.912Z,74.73
2022-09-06T05:16:42.210Z,74.80
2022-09-06T05:21:44.509Z,74.91
2022-09-06T05:26:46.824Z,74.81
2022-09-06T05:31:49.254Z,74.58
2022-09-06T05:37:10.351Z,74.57
2022-09-06T05:42:17.182Z,74.38
2022-09-06T05:47:21.586Z,74.49
2022-09-06T05:52:42.340Z,74.46
2022-09-06T05:57:44.662Z,74.22
2022-09-06T06:03:05.483Z,74.06
2022-09-06T06:08:26.945Z,74.04
2022-09-06T06:13:48.032Z,73.80
2022-09-06T06:18:52.457Z,73.62
2022-09-06T06:24:13.560Z,73.66
2022-09-06T06:29:34.648Z,73.75
2022-09-06T06:34:36.931Z,73.45
2022-09-06T06:39:39.313Z,73.13
2022-09-06T06:45:03.242Z,73.28
2022-09-06T06:50:26.565Z,73.04
2022-09-06T06:55:28.961Z,72.96
2022-09-06T07:00:31.246Z,72.69
2022-09-06T07:11:16.092Z,72.08
2022-09-06T07:16:37.174Z,71.77
2022-09-06T07:21:40.006Z,71.59
2022-09-06T07:26:42.469Z,71.80
2022-09-06T07:37:07.103Z,71.35
2022-09-06T07:42:09.767Z,71.21
2022-09-06T07:57:57.213Z,71.37
2022-09-06T08:03:04.668Z,70.70
2022-09-06T08:13:51.785Z,69.74
2022-09-06T08:18:58.683Z,70.12
2022-09-06T08:24:09.892Z,68.98
2022-09-06T08:29:12.799Z,69.66
2022-09-06T08:34:16.232Z,69.41
2022-09-06T08:39:18.705Z,69.44
2022-09-06T08:50:06.343Z,67.47
2022-09-06T08:55:40.958Z,66.78
2022-09-06T09:00:50.327Z,66.65
2022-09-06T09:05:53.775Z,67.46
2022-09-06T09:11:03.178Z,67.07
2022-09-06T09:16:06.474Z,67.62
2022-09-06T09:21:09.774Z,67.98
2022-09-06T09:26:15.312Z,67.76
2022-09-06T09:31:30.159Z,67.12
2022-09-06T09:36:33.316Z,67.38
2022-09-06T09:41:38.653Z,66.90
2022-09-06T09:46:42.093Z,66.62
2022-09-06T09:51:47.494Z,66.14
2022-09-06T09:56:54.168Z,66.37
2022-09-06T10:02:00.313Z,66.42
2022-09-06T10:07:10.686Z,66.77
2022-09-06T10:12:18.368Z,67.35
2022-09-06T10:17:50.687Z,67.22
2022-09-06T10:22:55.939Z,67.42
2022-09-06T10:28:11.657Z,67.45
2022-09-06T10:33:21.267Z,67.56
2022-09-06T10:38:42.471Z,67.46
2022-09-06T10:44:03.344Z,67.35
2022-09-06T10:49:07.523Z,67.18
2022-09-06T10:54:12.421Z,66.96
2022-09-06T10:59:36.684Z,66.54
2022-09-06T11:10:24.338Z,66.53
2022-09-06T11:15:30.434Z,65.66
2022-09-06T11:20:47.249Z,65.19
2022-09-06T11:26:32.816Z,64.93
2022-09-06T11:37:32.908Z,64.54
2022-09-06T11:42:44.182Z,65.10
2022-09-06T11:47:53.787Z,64.88
2022-09-06T11:53:05.012Z,64.85
2022-09-06T11:58:33.534Z,64.58
2022-09-06T12:09:42.916Z,64.78
2022-09-06T12:14:49.060Z,64.86
2022-09-06T12:20:06.279Z,64.69
2022-09-06T12:25:20.446Z,64.20
2022-09-06T12:30:39.687Z,63.67
2022-09-06T12:35:57.878Z,63.78
2022-09-06T12:41:02.024Z,63.39
2022-09-06T12:46:08.067Z,63.15
2022-09-06T12:51:16.497Z,63.13
2022-09-06T12:56:21.830Z,62.38
2022-09-06T13:01:33.183Z,62.57
2022-09-06T13:06:40.203Z,62.99
2022-09-06T13:11:51.809Z,64.58
2022-09-06T13:16:57.404Z,65.23
2022-09-06T13:22:00.580Z,66.06
2022-09-06T13:27:24.851Z,67.66
2022-09-06T13:32:28.353Z,67.03
2022-09-06T13:37:32.859Z,67.20
2022-09-06T13:42:39.316Z,66.91
2022-09-06T13:47:41.619Z,66.87
2022-09-06T13:52:46.100Z,66.17
2022-09-06T13:57:48.475Z,65.30
2022-09-06T14:02:51.352Z,65.15
2022-09-06T14:07:54.008Z,65.20
2022-09-06T14:12:56.391Z,64.76
2022-09-06T14:17:58.725Z,65.18
2022-09-06T14:23:01.191Z,65.30
2022-09-06T14:28:05.131Z,65.29
2022-09-06T14:33:07.433Z,65.23
2022-09-06T14:38:09.731Z,65.12
2022-09-06T14:43:12.273Z,65.15
2022-09-06T14:48:15.097Z,63.44
2022-09-06T14:53:38.895Z,63.16
2022-09-06T14:58:40.820Z,62.33
2022-09-06T15:03:47.019Z,62.59
2022-09-06T15:08:50.032Z,62.62
2022-09-06T15:13:52.416Z,62.67
2022-09-06T15:18:55.758Z,62.98
2022-09-06T15:24:17.140Z,62.89
2022-09-06T15:29:20.676Z,63.22
2022-09-06T15:34:26.846Z,62.91
2022-09-06T15:39:29.264Z,63.10
2022-09-06T15:44:31.657Z,63.39
2022-09-06T15:49:52.922Z,63.74
2022-09-06T15:55:13.588Z,63.62
2022-09-06T16:00:18.166Z,63.86
2022-09-06T16:10:43.027Z,64.51
2022-09-06T16:16:06.288Z,65.59
2022-09-06T16:21:12.772Z,66.23
2022-09-06T16:26:20.588Z,66.15
2022-09-06T16:31:25.357Z,66.49
2022-09-06T16:36:28.625Z,66.67
2022-09-06T16:41:42.818Z,67.77
2022-09-06T16:46:49.985Z,67.73
2022-09-06T16:51:52.668Z,67.82
2022-09-06T16:56:55.338Z,67.78
2022-09-06T17:01:57.985Z,68.51
2022-09-06T17:07:00.550Z,68.63
2022-09-06T17:12:04.076Z,68.92
2022-09-06T17:17:07.781Z,69.06
2022-09-06T17:22:11.536Z,69.45
2022-09-06T17:27:15.373Z,69.30
2022-09-06T17:32:17.743Z,69.07
2022-09-06T17:37:20.086Z,68.96
2022-09-06T17:42:22.514Z,68.85
2022-09-06T17:47:25.137Z,68.51
2022-09-06T17:52:46.189Z,68.31
2022-09-06T17:57:50.746Z,68.46
2022-09-06T18:02:55.309Z,68.33
2022-09-06T18:07:57.720Z,68.02
2022-09-06T18:13:06.877Z,67.72
2022-09-06T18:18:13.142Z,67.79
2022-09-06T18:23:35.122Z,67.98
2022-09-06T18:28:39.118Z,67.80
2022-09-06T18:33:42.885Z,67.52
2022-09-06T18:38:47.943Z,67.60
2022-09-06T18:43:50.950Z,67.56
2022-09-06T18:48:53.363Z,67.18
2022-09-06T18:53:57.162Z,67.54
2022-09-06T18:59:01.280Z,67.46
2022-09-06T19:04:09.634Z,67.64
2022-09-06T19:09:14.955Z,68.00
2022-09-06T19:14:17.778Z,68.01
2022-09-06T19:19:21.678Z,67.72
2022-09-06T19:24:24.948Z,67.92
2022-09-06T19:29:27.808Z,67.72
2022-09-06T19:34:30.181Z,67.90
2022-09-06T19:39:37.180Z,67.78
2022-09-06T19:44:39.745Z,67.74
2022-09-06T19:49:42.148Z,67.95
2022-09-06T19:54:44.551Z,67.85
2022-09-06T19:59:46.895Z,67.55
2022-09-06T20:04:49.210Z,67.60
2022-09-06T20:09:52.637Z,67.40
2022-09-06T20:14:55.163Z,67.42
2022-09-06T20:19:57.549Z,67.63
2022-09-06T20:25:00.100Z,67.43
2022-09-06T20:30:02.407Z,67.51
2022-09-06T20:35:06.177Z,67.25
2022-09-06T20:40:09.624Z,67.17
2022-09-06T20:45:13.512Z,67.29
2022-09-06T20:50:16.908Z,67.29
2022-09-06T20:55:19.443Z,67.36
2022-09-06T21:00:21.735Z,67.79
2022-09-06T21:05:24.061Z,67.96
2022-09-06T21:10:26.336Z,68.30
2022-09-06T21:15:29.794Z,68.41
2022-09-06T21:20:32.336Z,68.20
2022-09-06T21:25:34.617Z,68.69
2022-09-06T21:30:37.025Z,68.33
2022-09-06T21:35:39.535Z,68.26
2022-09-06T21:40:41.839Z,68.30
2022-09-06T21:45:44.341Z,68.60
2022-09-06T21:50:49.126Z,68.85
2022-09-06T21:55:51.539Z,68.92
2022-09-06T22:00:58.882Z,69.52
2022-09-06T22:06:11.848Z,70.15
2022-09-06T22:11:34.447Z,69.55
2022-09-06T22:16:38.416Z,69.70
2022-09-06T22:21:40.908Z,69.70
2022-09-06T22:27:01.669Z,69.68
2022-09-06T22:32:24.417Z,69.65
2022-09-06T22:37:26.672Z,69.65
2022-09-06T22:42:47.554Z,69.83
2022-09-06T22:47:51.251Z,69.86
2022-09-06T22:52:54.131Z,69.85
2022-09-06T22:58:15.079Z,69.92
2022-09-06T23:03:17.422Z,69.90
2022-09-06T23:08:19.873Z,69.84
2022-09-06T23:13:22.155Z,70.03
2022-09-06T23:18:43.177Z,69.92
2022-09-06T23:24:04.099Z,69.95
2022-09-06T23:29:06.437Z,69.97
2022-09-06T23:34:27.241Z,70.07
2022-09-06T23:39:48.242Z,70.16
2022-09-06T23:44:54.680Z,69.88
2022-09-06T23:50:15.556Z,70.05
2022-09-06T23:55:17.831Z,70.34
